createdAt,value
2017-06-19T00:00:10.109Z,6.15
2017-06-19T00:02:38.990Z,5.50
2017-06-19T00:05:07.873Z,5.60
2017-06-19T00:07:36.774Z,7.00
2017-06-19T00:10:05.671Z,5.50
2017-06-19T00:12:34.556Z,5.68
2017-06-19T00:15:03.450Z,6.28
2017-06-19T00:17:32.345Z,5.75
2017-06-19T00:20:01.240Z,6.05
2017-06-19T00:22:35.518Z,6.07
2017-06-19T00:25:04.402Z,5.90
2017-06-19T00:27:33.287Z,6.40
2017-06-19T00:30:02.944Z,5.82
2017-06-19T00:32:31.820Z,6.35
2017-06-19T00:35:01.474Z,5.50
2017-06-19T00:37:30.329Z,6.20
2017-06-19T00:39:59.218Z,5.80
2017-06-19T00:42:28.870Z,6.65
2017-06-19T00:44:57.758Z,6.35
2017-06-19T00:47:26.647Z,6.53
2017-06-19T00:49:55.529Z,6.10
2017-06-19T00:52:24.426Z,6.55
2017-06-19T00:54:53.314Z,6.85
2017-06-19T00:57:22.196Z,6.12
2017-06-19T00:59:51.082Z,6.95
2017-06-19T01:02:19.968Z,6.37
2017-06-19T01:04:48.819Z,6.65
2017-06-19T01:07:17.715Z,6.43
2017-06-19T01:09:46.602Z,6.82
2017-06-19T01:12:15.490Z,6.50
2017-06-19T01:14:44.372Z,6.80
2017-06-19T01:17:13.261Z,6.87
2017-06-19T01:19:42.149Z,6.25
2017-06-19T01:22:11.041Z,7.30
2017-06-19T01:24:39.929Z,6.30
2017-06-19T01:27:08.825Z,6.75
2017-06-19T01:29:37.715Z,6.93
2017-06-19T01:32:06.605Z,6.65
2017-06-19T01:34:35.500Z,7.50
2017-06-19T01:37:04.395Z,6.72
2017-06-19T01:39:33.286Z,6.15
2017-06-19T01:42:02.173Z,7.03
2017-06-19T01:44:31.065Z,6.65
2017-06-19T01:46:59.952Z,6.65
2017-06-19T01:49:28.837Z,6.37
2017-06-19T01:51:57.025Z,6.40
2017-06-19T01:54:25.913Z,6.57
2017-06-19T01:56:54.806Z,6.50
2017-06-19T01:59:23.696Z,6.35
2017-06-19T02:01:52.585Z,6.45
2017-06-19T02:04:21.475Z,7.12
2017-06-19T02:06:50.358Z,6.90
2017-06-19T02:09:19.248Z,7.75
2017-06-19T02:11:48.130Z,7.60
2017-06-19T02:14:17.012Z,7.12
2017-06-19T02:16:45.896Z,5.45
2017-06-19T02:19:14.746Z,7.30
2017-06-19T02:21:43.631Z,6.90
2017-06-19T02:24:12.479Z,7.07
2017-06-19T02:26:41.369Z,6.93
2017-06-19T02:29:10.259Z,7.00
2017-06-19T02:31:39.142Z,6.75
2017-06-19T02:34:08.147Z,6.68
2017-06-19T02:36:37.026Z,7.20
2017-06-19T02:39:05.218Z,6.47
2017-06-19T02:41:34.098Z,6.75
2017-06-19T02:44:02.985Z,6.43
2017-06-19T02:46:31.886Z,6.82
2017-06-19T02:49:00.769Z,6.62
2017-06-19T02:51:29.618Z,7.65
2017-06-19T02:53:58.497Z,7.05
2017-06-19T02:56:27.357Z,6.47
2017-06-19T02:58:56.254Z,7.20
2017-06-19T03:01:25.146Z,7.72
2017-06-19T03:03:54.030Z,6.75
2017-06-19T03:06:22.921Z,7.43
2017-06-19T03:08:51.816Z,6.60
2017-06-19T03:11:20.706Z,6.65
2017-06-19T03:13:49.591Z,7.15
2017-06-19T03:16:18.478Z,6.45
2017-06-19T03:18:47.375Z,7.07
2017-06-19T03:21:16.264Z,5.85
2017-06-19T03:23:45.114Z,6.18
2017-06-19T03:26:14.041Z,6.75
2017-06-19T03:28:42.937Z,8.63
2017-06-19T03:31:11.829Z,7.78
2017-06-19T03:33:40.708Z,7.75
2017-06-19T03:36:09.652Z,7.00
2017-06-19T03:38:38.649Z,6.12
2017-06-19T03:41:07.537Z,6.22
2017-06-19T03:43:36.432Z,5.85
2017-06-19T03:46:05.325Z,5.68
2017-06-19T03:48:34.217Z,6.45
2017-06-19T03:51:03.110Z,6.62
2017-06-19T03:53:31.958Z,6.60
2017-06-19T03:56:00.813Z,6.60
2017-06-19T03:58:29.710Z,7.07
2017-06-19T04:00:58.590Z,6.07
2017-06-19T04:03:27.561Z,7.03
2017-06-19T04:05:56.481Z,6.68
2017-06-19T04:08:25.370Z,7.25
2017-06-19T04:10:54.253Z,7.20
2017-06-19T04:13:23.237Z,7.00
2017-06-19T04:15:52.083Z,6.55
2017-06-19T04:18:20.975Z,7.57
2017-06-19T04:20:49.828Z,6.95
2017-06-19T04:23:18.805Z,6.97
2017-06-19T04:25:47.694Z,6.90
2017-06-19T04:28:16.592Z,7.68
2017-06-19T04:30:45.482Z,7.90
2017-06-19T04:33:14.371Z,7.50
2017-06-19T04:35:43.257Z,8.10
2017-06-19T04:38:12.153Z,7.40
2017-06-19T04:40:41.014Z,7.57
2017-06-19T04:43:09.900Z,7.07
2017-06-19T04:45:38.821Z,7.28
2017-06-19T04:48:07.717Z,7.70
2017-06-19T04:50:36.604Z,7.82
2017-06-19T04:53:05.449Z,7.65
2017-06-19T04:55:34.345Z,7.62
2017-06-19T04:58:03.233Z,7.70
2017-06-19T05:00:32.089Z,7.70
2017-06-19T05:03:00.954Z,7.80
2017-06-19T05:05:29.867Z,6.30
2017-06-19T05:07:58.729Z,7.50
2017-06-19T05:10:27.611Z,6.55
2017-06-19T05:12:56.495Z,6.72
2017-06-19T05:15:25.382Z,6.95
2017-06-19T05:17:54.273Z,6.40
2017-06-19T05:20:23.168Z,6.43
2017-06-19T05:22:52.062Z,6.78
2017-06-19T05:25:21.055Z,7.15
2017-06-19T05:27:49.937Z,5.90
2017-06-19T05:30:18.830Z,6.62
2017-06-19T05:32:47.717Z,7.50
2017-06-19T05:35:16.616Z,6.25
2017-06-19T05:37:45.477Z,6.30
2017-06-19T05:40:14.323Z,6.60
2017-06-19T05:42:43.230Z,6.47
2017-06-19T05:45:13.001Z,6.85
2017-06-19T05:47:43.196Z,5.35
2017-06-19T05:58:05.157Z,5.25
2017-06-19T06:03:14.090Z,5.97
2017-06-19T06:05:43.005Z,5.93
2017-06-19T06:08:12.857Z,5.82
2017-06-19T06:10:41.745Z,5.55
2017-06-19T06:13:11.401Z,5.60
2017-06-19T06:15:40.297Z,6.28
2017-06-19T06:18:09.190Z,5.75
2017-06-19T06:20:38.054Z,6.05
2017-06-19T06:23:06.952Z,6.30
2017-06-19T06:25:35.845Z,5.25
2017-06-19T06:28:04.728Z,4.90
2017-06-19T06:30:33.662Z,6.65
2017-06-19T06:33:02.548Z,5.70
2017-06-19T06:35:31.402Z,6.12
2017-06-19T06:38:00.284Z,5.93
2017-06-19T06:40:29.166Z,5.03
2017-06-19T06:42:57.862Z,5.57
2017-06-19T06:45:26.761Z,5.70
2017-06-19T06:47:55.645Z,5.07
2017-06-19T06:50:24.497Z,5.80
2017-06-19T06:52:53.376Z,4.68
2017-06-19T06:55:22.224Z,5.28
2017-06-19T06:57:51.075Z,4.80
2017-06-19T07:00:19.953Z,4.57
2017-06-19T07:02:48.837Z,5.00
2017-06-19T07:05:17.537Z,4.87
2017-06-19T07:07:46.426Z,4.30
2017-06-19T07:10:15.313Z,4.12
2017-06-19T07:12:44.213Z,4.03
2017-06-19T07:15:13.095Z,4.20
2017-06-19T07:17:41.977Z,4.18
2017-06-19T07:20:10.857Z,4.40
2017-06-19T07:22:39.746Z,3.83
2017-06-19T07:25:08.597Z,4.53
2017-06-19T07:27:37.501Z,4.28
2017-06-19T07:30:06.393Z,4.85
2017-06-19T07:32:35.285Z,4.22
2017-06-19T07:35:04.285Z,4.12
2017-06-19T07:37:33.170Z,4.80
2017-06-19T07:40:02.050Z,3.70
2017-06-19T07:42:30.936Z,4.12
2017-06-19T07:45:00.594Z,3.45
2017-06-19T07:47:29.496Z,3.17
2017-06-19T07:49:58.385Z,4.37
2017-06-19T07:52:27.251Z,5.43
2017-06-19T07:54:56.129Z,3.50
2017-06-19T07:57:25.025Z,3.90
2017-06-19T07:59:53.914Z,4.15
2017-06-19T08:02:22.803Z,4.05
2017-06-19T08:04:51.697Z,4.00
2017-06-19T08:07:20.588Z,3.83
2017-06-19T08:09:49.477Z,3.42
2017-06-19T08:12:18.361Z,4.20
2017-06-19T08:14:47.258Z,3.30
2017-06-19T08:17:16.154Z,3.50
2017-06-19T08:19:45.049Z,3.40
2017-06-19T08:22:13.937Z,3.53
2017-06-19T08:24:42.830Z,3.15
2017-06-19T08:27:11.730Z,3.75
2017-06-19T08:29:40.591Z,3.67
2017-06-19T08:32:10.387Z,3.45
2017-06-19T08:34:39.317Z,3.85
2017-06-19T08:37:08.214Z,4.05
2017-06-19T08:39:37.103Z,3.83
2017-06-19T08:42:05.995Z,3.70
2017-06-19T08:44:34.889Z,3.87
2017-06-19T08:47:03.513Z,3.90
2017-06-19T08:49:32.906Z,3.27
2017-06-19T08:52:02.299Z,3.83
2017-06-19T08:54:30.920Z,2.70
2017-06-19T08:56:59.549Z,3.30
2017-06-19T08:59:28.169Z,3.40
2017-06-19T09:01:57.569Z,3.10
2017-06-19T09:04:26.206Z,3.83
2017-06-19T09:06:54.795Z,3.73
2017-06-19T09:09:23.381Z,3.27
2017-06-19T09:11:52.009Z,3.57
2017-06-19T09:14:21.409Z,3.20
2017-06-19T09:16:50.065Z,2.60
2017-06-19T09:19:18.727Z,3.20
2017-06-19T09:21:47.354Z,3.23
2017-06-19T09:24:15.979Z,3.83
2017-06-19T09:26:44.621Z,5.10
2017-06-19T09:29:13.206Z,3.43
2017-06-19T09:31:41.828Z,3.50
2017-06-19T09:34:10.459Z,3.43
2017-06-19T09:36:39.085Z,2.73
2017-06-19T09:39:07.701Z,3.30
2017-06-19T09:41:36.325Z,3.47
2017-06-19T09:44:04.950Z,3.10
2017-06-19T09:46:33.577Z,3.40
2017-06-19T09:49:02.203Z,2.73
2017-06-19T09:51:31.631Z,3.37
2017-06-19T09:54:00.254Z,2.53
2017-06-19T09:56:28.854Z,3.20
2017-06-19T09:58:57.483Z,4.17
2017-06-19T10:01:26.112Z,2.80
2017-06-19T10:03:54.745Z,3.47
2017-06-19T10:06:24.151Z,3.03
2017-06-19T10:08:52.780Z,2.53
2017-06-19T10:11:21.405Z,3.13
2017-06-19T10:13:50.025Z,2.50
2017-06-19T10:16:19.258Z,3.67
2017-06-19T10:18:48.503Z,3.20
2017-06-19T10:21:17.133Z,2.70
2017-06-19T10:23:45.766Z,2.93
2017-06-19T10:26:15.168Z,3.00
2017-06-19T10:28:44.553Z,3.30
2017-06-19T10:31:13.169Z,2.50
2017-06-19T10:33:41.792Z,3.77
2017-06-19T10:36:10.413Z,3.10
2017-06-19T10:38:39.041Z,2.50
2017-06-19T10:41:07.667Z,2.70
2017-06-19T10:43:36.293Z,2.13
2017-06-19T10:46:04.914Z,2.30
2017-06-19T10:48:33.533Z,2.37
2017-06-19T10:51:02.158Z,2.47
2017-06-19T10:53:30.786Z,2.00
2017-06-19T10:55:59.421Z,1.90
2017-06-19T10:58:28.006Z,2.23
2017-06-19T11:00:57.367Z,2.13
2017-06-19T11:03:26.001Z,2.17
2017-06-19T11:05:54.641Z,1.80
2017-06-19T11:08:23.269Z,2.23
2017-06-19T11:10:51.864Z,2.30
2017-06-19T11:13:20.493Z,2.23
2017-06-19T11:15:49.084Z,2.03
2017-06-19T11:18:17.717Z,2.23
2017-06-19T11:20:46.337Z,2.83
2017-06-19T11:23:14.966Z,2.60
2017-06-19T11:25:43.590Z,2.30
2017-06-19T11:28:12.209Z,2.20
2017-06-19T11:30:40.801Z,2.40
2017-06-19T11:33:09.392Z,2.47
2017-06-19T11:35:38.017Z,2.30
2017-06-19T11:38:06.604Z,2.43
2017-06-19T11:40:35.234Z,2.47
2017-06-19T11:43:03.854Z,2.87
2017-06-19T11:45:33.217Z,2.70
2017-06-19T11:48:01.852Z,2.57
2017-06-19T11:50:30.489Z,2.50
2017-06-19T11:52:59.121Z,2.30
2017-06-19T11:55:28.502Z,2.40
2017-06-19T11:57:57.132Z,2.90
2017-06-19T12:00:25.753Z,2.23
2017-06-19T12:02:54.366Z,2.43
2017-06-19T12:05:23.749Z,2.40
2017-06-19T12:07:52.333Z,2.17
2017-06-19T12:10:20.953Z,2.50
2017-06-19T12:12:50.342Z,2.23
2017-06-19T12:15:18.923Z,2.07
2017-06-19T12:17:47.503Z,2.67
2017-06-19T12:20:16.118Z,2.50
2017-06-19T12:22:44.737Z,2.67
2017-06-19T12:25:13.358Z,2.67
2017-06-19T12:27:41.981Z,2.37
2017-06-19T12:30:10.601Z,3.33
2017-06-19T12:32:39.235Z,2.70
2017-06-19T12:35:08.618Z,2.47
2017-06-19T12:37:37.246Z,3.03
2017-06-19T12:40:05.879Z,2.80
2017-06-19T12:42:34.574Z,1.97
2017-06-19T12:45:03.193Z,3.10
2017-06-19T12:47:31.817Z,2.17
2017-06-19T12:50:00.454Z,2.57
2017-06-19T12:52:29.843Z,2.50
2017-06-19T12:54:58.465Z,2.73
2017-06-19T12:57:27.094Z,2.30
2017-06-19T12:59:55.718Z,2.63
2017-06-19T13:02:25.106Z,2.80
2017-06-19T13:04:53.689Z,2.43
2017-06-19T13:07:22.305Z,2.97
2017-06-19T13:09:50.936Z,2.50
2017-06-19T13:12:19.562Z,2.20
2017-06-19T13:14:48.191Z,2.73
2017-06-19T13:17:16.813Z,2.33
2017-06-19T13:19:45.403Z,2.00
2017-06-19T13:22:14.801Z,2.90
2017-06-19T13:24:43.420Z,2.10
2017-06-19T13:27:12.044Z,2.60
2017-06-19T13:29:40.669Z,2.20
2017-06-19T13:32:09.294Z,2.30
2017-06-19T13:34:37.914Z,2.30
2017-06-19T13:37:06.536Z,1.80
2017-06-19T13:39:35.156Z,2.07
2017-06-19T13:42:03.773Z,1.93
2017-06-19T13:44:32.417Z,2.57
2017-06-19T13:47:01.041Z,2.60
2017-06-19T13:49:30.475Z,2.73
2017-06-19T13:51:59.166Z,2.27
2017-06-19T13:54:28.578Z,2.60
2017-06-19T13:56:57.206Z,2.40
2017-06-19T13:59:29.568Z,2.50
2017-06-19T14:01:58.505Z,2.03
2017-06-19T14:04:27.181Z,2.73
2017-06-19T14:06:55.813Z,2.10
2017-06-19T14:09:24.397Z,2.13
2017-06-19T14:11:53.026Z,1.77
2017-06-19T14:14:21.645Z,2.17
2017-06-19T14:16:51.046Z,2.20
2017-06-19T14:19:20.410Z,2.03
2017-06-19T14:21:49.038Z,2.13
2017-06-19T14:24:18.412Z,2.00
2017-06-19T14:26:47.045Z,1.73
2017-06-19T14:29:15.629Z,1.90
2017-06-19T14:31:44.214Z,1.63
2017-06-19T14:34:12.801Z,2.17
2017-06-19T14:36:41.382Z,1.70
2017-06-19T14:39:10.003Z,2.00
2017-06-19T14:41:38.625Z,1.93
2017-06-19T14:44:07.253Z,2.30
2017-06-19T14:46:35.862Z,1.90
2017-06-19T14:49:04.490Z,1.90
2017-06-19T14:51:33.847Z,1.90
2017-06-19T14:54:02.474Z,1.63
2017-06-19T14:56:31.101Z,2.17
2017-06-19T14:58:59.717Z,1.30
2017-06-19T15:01:28.347Z,1.77
2017-06-19T15:03:56.982Z,2.10
2017-06-19T15:06:25.622Z,2.10
2017-06-19T15:08:54.247Z,2.13
2017-06-19T15:11:22.888Z,2.37
2017-06-19T15:13:51.470Z,2.00
2017-06-19T15:16:20.758Z,2.20
2017-06-19T15:18:50.150Z,2.67
2017-06-19T15:21:34.513Z,2.40
2017-06-19T15:24:03.871Z,2.00
2017-06-19T15:26:32.568Z,2.30
2017-06-19T15:29:01.193Z,2.30
2017-06-19T15:31:30.585Z,2.30
2017-06-19T15:33:59.210Z,2.80
2017-06-19T15:36:27.826Z,2.27
2017-06-19T15:38:56.457Z,2.13
2017-06-19T15:41:25.096Z,2.40
2017-06-19T15:43:53.718Z,2.50
2017-06-19T15:46:23.097Z,2.00
2017-06-19T15:48:51.717Z,2.47
2017-06-19T15:51:21.064Z,1.70
2017-06-19T15:53:49.678Z,2.07
2017-06-19T15:56:18.301Z,1.97
2017-06-19T15:58:46.922Z,2.27
2017-06-19T16:01:15.550Z,2.03
2017-06-19T16:03:44.959Z,2.20
2017-06-19T16:06:14.350Z,2.50
2017-06-19T16:08:42.971Z,2.33
2017-06-19T16:11:11.593Z,1.73
2017-06-19T16:13:40.226Z,1.83
2017-06-19T16:16:09.622Z,1.80
2017-06-19T16:18:39.022Z,1.90
2017-06-19T16:21:08.414Z,2.00
2017-06-19T16:23:38.033Z,2.00
2017-06-19T16:26:07.421Z,1.70
2017-06-19T16:28:36.042Z,1.80
2017-06-19T16:31:04.671Z,1.67
2017-06-19T16:33:33.295Z,1.50
2017-06-19T16:36:02.686Z,1.53
2017-06-19T16:38:31.310Z,1.67
2017-06-19T16:40:59.934Z,1.80
2017-06-19T16:43:28.562Z,1.90
2017-06-19T16:45:57.953Z,1.57
2017-06-19T16:48:27.333Z,1.60
2017-06-19T16:50:55.953Z,1.73
2017-06-19T16:53:24.545Z,2.00
2017-06-19T16:55:53.165Z,1.30
2017-06-19T16:58:21.496Z,2.00
2017-06-19T17:00:50.885Z,1.60
2017-06-19T17:03:19.501Z,2.00
2017-06-19T17:05:48.122Z,1.60
2017-06-19T17:08:16.764Z,1.80
2017-06-19T17:10:45.391Z,1.60
2017-06-19T17:13:14.021Z,1.80
2017-06-19T17:15:43.426Z,2.30
2017-06-19T17:18:12.821Z,2.00
2017-06-19T17:20:41.414Z,2.30
2017-06-19T17:23:10.783Z,1.67
2017-06-19T17:25:39.421Z,3.37
2017-06-19T17:28:08.045Z,2.20
2017-06-19T17:30:36.666Z,1.93
2017-06-19T17:33:05.294Z,1.50
2017-06-19T17:35:33.913Z,2.13
2017-06-19T17:38:02.530Z,2.00
2017-06-19T17:40:31.173Z,1.80
2017-06-19T17:42:59.793Z,1.90
2017-06-19T17:45:28.410Z,2.43
2017-06-19T17:47:57.031Z,2.30
2017-06-19T17:50:25.661Z,1.97
2017-06-19T17:52:55.046Z,2.00
2017-06-19T17:55:23.670Z,1.93
2017-06-19T17:57:52.295Z,2.10
2017-06-19T18:00:21.021Z,2.57
2017-06-19T18:02:49.649Z,2.57
2017-06-19T18:05:18.235Z,2.20
2017-06-19T18:07:46.522Z,4.50
2017-06-19T18:10:15.157Z,2.37
2017-06-19T18:12:44.665Z,2.27
2017-06-19T18:15:13.295Z,2.10
2017-06-19T18:17:41.921Z,2.20
2017-06-19T18:20:10.537Z,2.20
2017-06-19T18:22:39.165Z,2.23
2017-06-19T18:25:07.794Z,2.10
2017-06-19T18:27:36.423Z,1.90
2017-06-19T18:30:05.123Z,2.47
2017-06-19T18:32:33.750Z,2.03
2017-06-19T18:35:03.958Z,2.03
2017-06-19T18:37:33.321Z,1.90
2017-06-19T18:40:01.904Z,2.50
2017-06-19T18:42:30.490Z,2.20
2017-06-19T18:44:59.122Z,2.00
2017-06-19T18:47:28.513Z,1.97
2017-06-19T18:49:57.137Z,2.20
2017-06-19T18:52:25.777Z,2.23
2017-06-19T18:54:54.361Z,2.07
2017-06-19T18:57:22.987Z,2.40
2017-06-19T18:59:51.609Z,2.80
2017-06-19T19:02:20.239Z,2.33
2017-06-19T19:04:49.629Z,2.30
2017-06-19T19:07:18.217Z,1.90
2017-06-19T19:09:47.570Z,2.80
2017-06-19T19:12:16.158Z,2.10
2017-06-19T19:14:44.743Z,2.77
2017-06-19T19:17:13.499Z,7.57
2017-06-19T19:19:42.125Z,3.23
2017-06-19T19:22:10.765Z,12.70
2017-06-19T19:24:39.407Z,3.40
2017-06-19T19:27:08.034Z,2.83
2017-06-19T19:29:37.421Z,3.23
2017-06-19T19:32:05.856Z,3.27
2017-06-19T19:34:34.489Z,3.43
2017-06-19T19:37:03.877Z,2.80
2017-06-19T19:39:32.509Z,3.03
2017-06-19T19:42:01.094Z,3.50
2017-06-19T19:44:29.730Z,3.33
2017-06-19T19:46:58.354Z,3.07
2017-06-19T19:49:26.986Z,3.03
2017-06-19T19:51:55.681Z,3.47
2017-06-19T19:54:24.309Z,4.17
2017-06-19T19:56:53.705Z,3.23
2017-06-19T19:59:23.062Z,3.50
2017-06-19T20:01:51.686Z,3.80
2017-06-19T20:04:21.334Z,3.70
2017-06-19T20:06:49.962Z,3.53
2017-06-19T20:09:18.578Z,3.60
2017-06-19T20:11:47.961Z,3.87
2017-06-19T20:14:16.597Z,7.20
2017-06-19T20:16:45.218Z,3.93
2017-06-19T20:19:14.142Z,3.60
2017-06-19T20:21:43.533Z,3.50
2017-06-19T20:24:13.189Z,4.20
2017-06-19T20:26:41.834Z,4.10
2017-06-19T20:29:11.243Z,3.37
2017-06-19T20:31:40.638Z,4.47
2017-06-19T20:34:09.253Z,4.07
2017-06-19T20:36:37.881Z,3.30
2017-06-19T20:39:06.510Z,4.13
2017-06-19T20:41:36.605Z,3.80
2017-06-19T20:44:05.221Z,3.70
2017-06-19T20:46:33.857Z,3.77
2017-06-19T20:49:02.478Z,3.93
2017-06-19T20:51:31.864Z,3.87
2017-06-19T20:54:00.491Z,4.07
2017-06-19T20:56:29.111Z,4.10
2017-06-19T20:58:57.742Z,3.70
2017-06-19T21:01:27.125Z,4.30
2017-06-19T21:03:55.745Z,3.40
2017-06-19T21:06:24.371Z,4.60
2017-06-19T21:08:52.962Z,3.83
2017-06-19T21:11:21.591Z,4.20
2017-06-19T21:13:50.218Z,5.37
2017-06-19T21:16:18.832Z,4.20
2017-06-19T21:18:47.427Z,4.93
2017-06-19T21:21:17.765Z,4.33
2017-06-19T21:23:47.476Z,4.03
2017-06-19T21:26:16.871Z,4.30
2017-06-19T21:28:45.460Z,5.10
2017-06-19T21:31:14.849Z,4.53
2017-06-19T21:33:43.475Z,4.10
2017-06-19T21:36:12.114Z,4.53
2017-06-19T21:38:41.614Z,4.80
2017-06-19T21:41:10.332Z,4.60
2017-06-19T21:43:39.221Z,4.47
2017-06-19T21:46:08.604Z,4.50
2017-06-19T21:48:37.494Z,3.75
2017-06-19T21:51:06.373Z,4.12
2017-06-19T21:53:35.003Z,3.23
2017-06-19T21:56:03.885Z,4.30
2017-06-19T21:58:33.302Z,4.10
2017-06-19T22:01:02.185Z,4.07
2017-06-19T22:03:31.581Z,4.70
2017-06-19T22:06:00.972Z,4.87
2017-06-19T22:08:29.830Z,4.62
2017-06-19T22:10:58.722Z,4.25
2017-06-19T22:13:27.613Z,4.55
2017-06-19T22:15:56.586Z,4.75
2017-06-19T22:18:26.247Z,4.55
2017-06-19T22:21:14.830Z,4.07
2017-06-19T22:23:44.018Z,5.55
2017-06-19T22:26:12.910Z,5.25
2017-06-19T22:28:41.864Z,5.15
2017-06-19T22:31:11.713Z,5.50
2017-06-19T22:33:40.605Z,4.37
2017-06-19T22:36:09.457Z,4.72
2017-06-19T22:38:38.308Z,5.10
2017-06-19T22:41:07.193Z,5.30
2017-06-19T22:43:36.085Z,5.00
2017-06-19T22:48:44.404Z,5.40
2017-06-19T22:51:14.899Z,4.28
2017-06-19T22:53:44.129Z,4.95
2017-06-19T22:56:13.029Z,5.03
2017-06-19T22:58:41.918Z,4.93
2017-06-19T23:01:10.810Z,4.50
2017-06-19T23:03:39.702Z,5.37
2017-06-19T23:06:08.559Z,4.80
2017-06-19T23:08:37.451Z,4.87
2017-06-19T23:11:06.336Z,4.20
2017-06-19T23:13:35.227Z,4.20
2017-06-19T23:16:04.119Z,5.80
2017-06-19T23:18:33.037Z,5.47
2017-06-19T23:21:01.921Z,5.47
2017-06-19T23:23:30.809Z,5.05
2017-06-19T23:25:59.696Z,6.05
2017-06-19T23:28:28.589Z,5.50
2017-06-19T23:30:57.482Z,4.90
2017-06-19T23:33:26.333Z,5.30
2017-06-19T23:35:55.982Z,5.60
2017-06-19T23:38:24.870Z,5.93
2017-06-19T23:40:54.526Z,4.82
2017-06-19T23:43:23.417Z,5.82
2017-06-19T23:45:52.305Z,6.10
2017-06-19T23:48:21.193Z,5.93
2017-06-19T23:50:50.077Z,5.62
2017-06-19T23:53:18.964Z,6.03
2017-06-19T23:55:47.857Z,6.28
2017-06-19T23:58:16.769Z,6.00
